Observation data for Morton on 09/18/2020      Previous  Date  Next       Current Mesonet Observations  Soil Data  Daily Summary Page  Observations in Plain Language
KMNS 180500Z 06003KT 16/09 A3025 RMK A01 T01570085  RH  064%=      5-min Rain = 0
KMNS 180505Z 06004KT 16/08 A3025 RMK A01 T01550081  RH  063%=      5-min Rain = 0
KMNS 180510Z 07004KT 16/08 A3025 RMK A01 T01560080  RH  062%=      5-min Rain = 0
KMNS 180515Z 08004KT 16/08 A3025 RMK A01 T01550078  RH  062%=      5-min Rain = 0
KMNS 180520Z 09004KT 15/08 A3025 RMK A01 T01530076  RH  062%=      5-min Rain = 0
KMNS 180525Z 10003KT 15/07 A3025 RMK A01 T01470071  RH  062%=      5-min Rain = 0
KMNS 180530Z 11002KT 15/08 A3025 RMK A01 T01480078  RH  064%=      5-min Rain = 0
KMNS 180535Z 13002KT 15/08 A3025 RMK A01 T01470075  RH  064%=      5-min Rain = 0
KMNS 180540Z 14001KT 14/07 A3025 RMK A01 T01390071  RH  065%=      5-min Rain = 0
KMNS 180545Z 13001KT 14/08 A3025 RMK A01 T01380075  RH  067%=      5-min Rain = 0
KMNS 180550Z 12001KT 14/08 A3025 RMK A01 T01440082  RH  068%=      5-min Rain = 0
KMNS 180555Z 12001KT 15/08 A3025 RMK A01 T01480083  RH  067%=      5-min Rain = 0
KMNS 180600Z 13001KT 15/08 A3025 RMK A01 T01490084  RH  067%=      5-min Rain = 0
KMNS 180605Z 13001KT 15/08 A3025 RMK A01 T01470078  RH  065%=      5-min Rain = 0
KMNS 180610Z 13001KT 14/08 A3025 RMK A01 T01440081  RH  068%=      5-min Rain = 0
KMNS 180615Z 13001KT 15/09 A3025 RMK A01 T01450085  RH  069%=      5-min Rain = 0
KMNS 180620Z 13001KT 15/09 A3025 RMK A01 T01450086  RH  069%=      5-min Rain = 0
KMNS 180625Z 13001KT 14/09 A3025 RMK A01 T01440088  RH  071%=      5-min Rain = 0
KMNS 180630Z 13001KT 15/09 A3025 RMK A01 T01460091  RH  072%=      5-min Rain = 0
KMNS 180635Z 13001KT 14/08 A3025 RMK A01 T01390081  RH  070%=      5-min Rain = 0
KMNS 180640Z 13000KT 14/08 A3025 RMK A01 T01350077  RH  070%=      5-min Rain = 0
KMNS 180645Z 00000KT 14/08 A3025 RMK A01 T01350080  RH  071%=      5-min Rain = 0
KMNS 180650Z 21000KT 13/08 A3025 RMK A01 T01320076  RH  071%=      5-min Rain = 0
KMNS 180655Z 26001KT 13/08 A3025 RMK A01 T01310077  RH  072%=      5-min Rain = 0
KMNS 180700Z 27002KT 13/08 A3025 RMK A01 T01290080  RH  074%=      5-min Rain = 0
KMNS 180705Z 28002KT 13/08 A3025 RMK A01 T01280078  RH  073%=      5-min Rain = 0
KMNS 180710Z 28002KT 13/08 A3025 RMK A01 T01280080  RH  075%=      5-min Rain = 0
KMNS 180715Z 27001KT 13/08 A3025 RMK A01 T01270076  RH  073%=      5-min Rain = 0
KMNS 180720Z 27001KT 12/07 A3025 RMK A01 T01220072  RH  074%=      5-min Rain = 0
KMNS 180725Z 27002KT 12/07 A3025 RMK A01 T01210073  RH  075%=      5-min Rain = 0
KMNS 180730Z 28003KT 12/08 A3025 RMK A01 T01210075  RH  076%=      5-min Rain = 0
KMNS 180735Z 28003KT 12/07 A3025 RMK A01 T01210073  RH  074%=      5-min Rain = 0
KMNS 180740Z 28003KT 12/07 A3025 RMK A01 T01180068  RH  073%=      5-min Rain = 0
KMNS 180745Z 28003KT 12/07 A3025 RMK A01 T01160068  RH  074%=      5-min Rain = 0
KMNS 180750Z 28003KT 12/07 A3025 RMK A01 T01150068  RH  075%=      5-min Rain = 0
KMNS 180755Z 28003KT 11/07 A3025 RMK A01 T01130068  RH  076%=      5-min Rain = 0
KMNS 180800Z 28004KT 11/07 A3025 RMK A01 T01130071  RH  077%=      5-min Rain = 0
KMNS 180805Z 29004KT 11/07 A3025 RMK A01 T01130072  RH  078%=      5-min Rain = 0
KMNS 180810Z 29003KT 12/08 A3025 RMK A01 T01150075  RH  079%=      5-min Rain = 0
KMNS 180815Z 29003KT 12/08 A3025 RMK A01 T01150075  RH  079%=      5-min Rain = 0
KMNS 180820Z 30003KT 11/07 A3025 RMK A01 T01130074  RH  079%=      5-min Rain = 0
KMNS 180825Z 30003KT 11/08 A3026 RMK A01 T01140075  RH  079%=      5-min Rain = 0
KMNS 180830Z 30003KT 11/07 A3026 RMK A01 T01140074  RH  078%=      5-min Rain = 0
KMNS 180835Z 31003KT 12/07 A3026 RMK A01 T01150074  RH  078%=      5-min Rain = 0
KMNS 180840Z 31004KT 12/08 A3026 RMK A01 T01150076  RH  079%=      5-min Rain = 0
KMNS 180845Z 31004KT 12/08 A3026 RMK A01 T01160075  RH  078%=      5-min Rain = 0
KMNS 180850Z 31004KT 12/07 A3026 RMK A01 T01150072  RH  077%=      5-min Rain = 0
KMNS 180855Z 31004KT 12/08 A3026 RMK A01 T01170076  RH  078%=      5-min Rain = 0
KMNS 180900Z 31004KT 12/08 A3026 RMK A01 T01170077  RH  078%=      5-min Rain = 0
KMNS 180905Z 32004KT 12/08 A3026 RMK A01 T01180077  RH  078%=      5-min Rain = 0
KMNS 180910Z 32003KT 12/08 A3026 RMK A01 T01160075  RH  078%=      5-min Rain = 0
KMNS 180915Z 32004KT 12/08 A3026 RMK A01 T01170077  RH  078%=      5-min Rain = 0
KMNS 180920Z 32004KT 12/07 A3026 RMK A01 T01160073  RH  077%=      5-min Rain = 0
KMNS 180925Z 32003KT 11/07 A3026 RMK A01 T01140070  RH  076%=      5-min Rain = 0
KMNS 180930Z 32003KT 12/07 A3026 RMK A01 T01150071  RH  076%=      5-min Rain = 0
KMNS 180935Z 33004KT 11/07 A3026 RMK A01 T01140070  RH  076%=      5-min Rain = 0
KMNS 180940Z 34005KT 11/07 A3026 RMK A01 T01110067  RH  076%=      5-min Rain = 0
KMNS 180945Z 34005KT 11/07 A3026 RMK A01 T01070065  RH  077%=      5-min Rain = 0
KMNS 180950Z 34005KT 11/07 A3026 RMK A01 T01070066  RH  078%=      5-min Rain = 0
KMNS 180955Z 34005KT 11/07 A3026 RMK A01 T01070066  RH  078%=      5-min Rain = 0
KMNS 181000Z 35005KT 11/07 A3026 RMK A01 T01070067  RH  078%=      5-min Rain = 0
KMNS 181005Z 35005KT 11/07 A3026 RMK A01 T01050066  RH  079%=      5-min Rain = 0
KMNS 181010Z 34004KT 11/07 A3026 RMK A01 T01070071  RH  081%=      5-min Rain = 0
KMNS 181015Z 34004KT 11/08 A3026 RMK A01 T01090075  RH  082%=      5-min Rain = 0
KMNS 181020Z 34005KT 11/08 A3026 RMK A01 T01090075  RH  081%=      5-min Rain = 0
KMNS 181025Z 35005KT 11/07 A3026 RMK A01 T01080072  RH  081%=      5-min Rain = 0
KMNS 181030Z 35006KT 11/07 A3026 RMK A01 T01060070  RH  081%=      5-min Rain = 0
KMNS 181035Z 35005KT 11/07 A3026 RMK A01 T01060071  RH  081%=      5-min Rain = 0
KMNS 181040Z 35005KT 11/07 A3026 RMK A01 T01050070  RH  081%=      5-min Rain = 0
KMNS 181045Z 35005KT 10/07 A3026 RMK A01 T01040069  RH  081%=      5-min Rain = 0
KMNS 181050Z 35005KT 11/07 A3026 RMK A01 T01050071  RH  081%=      5-min Rain = 0
KMNS 181055Z 35005KT 11/07 A3026 RMK A01 T01060073  RH  082%=      5-min Rain = 0
KMNS 181100Z 34004KT 11/07 A3026 RMK A01 T01070074  RH  082%=      5-min Rain = 0
KMNS 181105Z 34004KT 11/07 A3026 RMK A01 T01060072  RH  082%=      5-min Rain = 0
KMNS 181110Z 34004KT 11/07 A3026 RMK A01 T01060072  RH  082%=      5-min Rain = 0
KMNS 181115Z 35005KT 11/07 A3026 RMK A01 T01050072  RH  082%=      5-min Rain = 0
KMNS 181120Z 34004KT 11/07 A3026 RMK A01 T01050073  RH  082%=      5-min Rain = 0
KMNS 181125Z 34004KT 11/07 A3026 RMK A01 T01060074  RH  082%=      5-min Rain = 0
KMNS 181130Z 34004KT 11/07 A3026 RMK A01 T01060072  RH  082%=      5-min Rain = 0
KMNS 181135Z 34005KT 10/07 A3026 RMK A01 T01040071  RH  082%=      5-min Rain = 0
KMNS 181140Z 34005KT 10/07 A3026 RMK A01 T01040071  RH  082%=      5-min Rain = 0
KMNS 181145Z 33004KT 10/07 A3027 RMK A01 T01040072  RH  083%=      5-min Rain = 0
KMNS 181150Z 33004KT 11/07 A3027 RMK A01 T01050074  RH  083%=      5-min Rain = 0
KMNS 181155Z 33004KT 11/08 A3027 RMK A01 T01080076  RH  083%=      5-min Rain = 0
KMNS 181200Z 33004KT 11/08 A3027 RMK A01 T01070076  RH  083%=      5-min Rain = 0
KMNS 181205Z 32003KT 11/08 A3027 RMK A01 T01070076  RH  083%=      5-min Rain = 0
KMNS 181210Z 31004KT 11/08 A3027 RMK A01 T01060075  RH  084%=      5-min Rain = 0
KMNS 181215Z 31004KT 10/07 A3027 RMK A01 T01020072  RH  083%=      5-min Rain = 0
KMNS 181220Z 31004KT 10/07 A3027 RMK A01 T01000070  RH  084%=      5-min Rain = 0
KMNS 181225Z 32004KT 10/07 A3027 RMK A01 T00980070  RH  085%=      5-min Rain = 0
KMNS 181230Z 32005KT 10/07 A3027 RMK A01 T00990072  RH  086%=      5-min Rain = 0
KMNS 181235Z 32004KT 10/08 A3028 RMK A01 T01020077  RH  086%=      5-min Rain = 0
KMNS 181240Z 31003KT 10/08 A3028 RMK A01 T01020077  RH  086%=      5-min Rain = 0
KMNS 181245Z 31003KT 10/07 A3028 RMK A01 T00970071  RH  086%=      5-min Rain = 0
KMNS 181250Z 31003KT 10/07 A3028 RMK A01 T00970071  RH  086%=      5-min Rain = 0
KMNS 181255Z 31004KT 10/07 A3028 RMK A01 T00980072  RH  086%=      5-min Rain = 0
KMNS 181300Z 32004KT 10/07 A3028 RMK A01 T01000073  RH  086%=      5-min Rain = 0
KMNS 181305Z 31004KT 10/07 A3028 RMK A01 T01010074  RH  085%=      5-min Rain = 0
KMNS 181310Z 30004KT 10/07 A3029 RMK A01 T01030074  RH  085%=      5-min Rain = 0
KMNS 181315Z 30004KT 11/08 A3029 RMK A01 T01050076  RH  085%=      5-min Rain = 0
KMNS 181320Z 30003KT 11/08 A3029 RMK A01 T01080079  RH  084%=      5-min Rain = 0
KMNS 181325Z 30003KT 11/08 A3029 RMK A01 T01110080  RH  083%=      5-min Rain = 0
KMNS 181330Z 31003KT 12/08 A3029 RMK A01 T01150082  RH  082%=      5-min Rain = 0
KMNS 181335Z 32003KT 12/09 A303 RMK A01 T01210086  RH  081%=      5-min Rain = 0
KMNS 181340Z 31003KT 13/09 A303 RMK A01 T01260086  RH  079%=      5-min Rain = 0
KMNS 181345Z 31004KT 13/09 A303 RMK A01 T01290086  RH  077%=      5-min Rain = 0
KMNS 181350Z 32004KT 13/09 A303 RMK A01 T01320086  RH  076%=      5-min Rain = 0
KMNS 181355Z 32004KT 14/09 A303 RMK A01 T01360088  RH  075%=      5-min Rain = 0
KMNS 181400Z 33003KT 14/09 A303 RMK A01 T01430091  RH  073%=      5-min Rain = 0
KMNS 181405Z 32003KT 15/09 A303 RMK A01 T01490092  RH  071%=      5-min Rain = 0
KMNS 181410Z 32003KT 15/09 A3031 RMK A01 T01540093  RH  069%=      5-min Rain = 0
KMNS 181415Z 33003KT 16/10 A3031 RMK A01 T01600096  RH  068%=      5-min Rain = 0
KMNS 181420Z 35003KT 17/10 A3031 RMK A01 T01680099  RH  066%=      5-min Rain = 0
KMNS 181425Z 00003KT 17/10 A3031 RMK A01 T01740101  RH  065%=      5-min Rain = 0
KMNS 181430Z 36003KT 18/10 A3031 RMK A01 T01780103  RH  064%=      5-min Rain = 0
KMNS 181435Z 00004KT 18/11 A3031 RMK A01 T01810105  RH  063%=      5-min Rain = 0
KMNS 181440Z 00004KT 19/11 A3032 RMK A01 T01860106  RH  062%=      5-min Rain = 0
KMNS 181445Z 00004KT 19/11 A3032 RMK A01 T01890107  RH  061%=      5-min Rain = 0
KMNS 181450Z 01004KT 19/11 A3032 RMK A01 T01920109  RH  060%=      5-min Rain = 0
KMNS 181455Z 00003KT 20/11 A3032 RMK A01 T01960110  RH  059%=      5-min Rain = 0
KMNS 181500Z 01003KT 20/11 A3032 RMK A01 T01980111  RH  059%=      5-min Rain = 0
KMNS 181505Z 00003KT 20/11 A3032 RMK A01 T02040112  RH  058%=      5-min Rain = 0
KMNS 181510Z 35002KT 21/11 A3033 RMK A01 T02080112  RH  056%=      5-min Rain = 0
KMNS 181515Z 00003KT 21/11 A3033 RMK A01 T02110112  RH  055%=      5-min Rain = 0
KMNS 181520Z 01002KT 21/11 A3033 RMK A01 T02120112  RH  055%=      5-min Rain = 0
KMNS 181525Z 33002KT 22/11 A3033 RMK A01 T02150111  RH  053%=      5-min Rain = 0
KMNS 181530Z 31001KT 21/11 A3033 RMK A01 T02140110  RH  053%=      5-min Rain = 0
KMNS 181535Z 24001KT 22/11 A3033 RMK A01 T02180110  RH  052%=      5-min Rain = 0
KMNS 181540Z 09001KT 22/11 A3033 RMK A01 T02210111  RH  051%=      5-min Rain = 0
KMNS 181545Z 06002KT 23/11 A3034 RMK A01 T02250112  RH  050%=      5-min Rain = 0
KMNS 181550Z 35003KT 22/11 A3034 RMK A01 T02240109  RH  050%=      5-min Rain = 0
KMNS 181555Z 28001KT 22/11 A3034 RMK A01 T02180108  RH  051%=      5-min Rain = 0
KMNS 181600Z 06002KT 22/11 A3034 RMK A01 T02230109  RH  050%=      5-min Rain = 0
KMNS 181605Z 32004KT 23/11 A3034 RMK A01 T02270109  RH  049%=      5-min Rain = 0
KMNS 181610Z 32002KT 23/11 A3034 RMK A01 T02250109  RH  049%=      5-min Rain = 0
KMNS 181615Z 26002KT 23/11 A3034 RMK A01 T02270109  RH  049%=      5-min Rain = 0
KMNS 181620Z 20001KT 23/11 A3034 RMK A01 T02290110  RH  048%=      5-min Rain = 0
KMNS 181625Z 04002KT 23/11 A3034 RMK A01 T02330109  RH  047%=      5-min Rain = 0
KMNS 181630Z 33002KT 24/11 A3034 RMK A01 T02350110  RH  047%=      5-min Rain = 0
KMNS 181635Z 01005KT 24/11 A3034 RMK A01 T02380109  RH  046%=      5-min Rain = 0
KMNS 181640Z 03004KT 23/11 A3033 RMK A01 T02340107  RH  046%=      5-min Rain = 0
KMNS 181645Z 08003KT 24/11 A3033 RMK A01 T02400108  RH  045%=      5-min Rain = 0
KMNS 181650Z 02003KT 24/11 A3033 RMK A01 T02350107  RH  046%=      5-min Rain = 0
KMNS 181655Z 08005KT 24/10 A3033 RMK A01 T02360102  RH  044%=      5-min Rain = 0
KMNS 181700Z 10005KT 24/10 A3033 RMK A01 T02400100  RH  043%=      5-min Rain = 0
KMNS 181705Z 10005KT 24/10 A3033 RMK A01 T02410100  RH  042%=      5-min Rain = 0
KMNS 181710Z 04003KT 24/10 A3033 RMK A01 T02420102  RH  042%=      5-min Rain = 0
KMNS 181715Z 02004G9KT 24/10 A3032 RMK A01 T02380101  RH  043%=      5-min Rain = 0
KMNS 181720Z 35002KT 24/10 A3032 RMK A01 T02360101  RH  044%=      5-min Rain = 0
KMNS 181725Z 35003KT 24/10 A3032 RMK A01 T02430098  RH  041%=      5-min Rain = 0
KMNS 181730Z 11003KT 25/10 A3032 RMK A01 T02470096  RH  040%=      5-min Rain = 0
KMNS 181735Z 14003KT 25/10 A3032 RMK A01 T02540096  RH  038%=      5-min Rain = 0
KMNS 181740Z 03006KT 25/09 A3032 RMK A01 T02530093  RH  037%=      5-min Rain = 0
KMNS 181745Z 03007KT 25/09 A3032 RMK A01 T02460094  RH  039%=      5-min Rain = 0
KMNS 181750Z 36004KT 25/10 A3031 RMK A01 T02500095  RH  039%=      5-min Rain = 0
KMNS 181755Z 06006KT 25/10 A3031 RMK A01 T02530097  RH  038%=      5-min Rain = 0
KMNS 181800Z 07006G11KT 26/09 A3031 RMK A01 T02550092  RH  037%=      5-min Rain = 0
KMNS 181805Z 08005G10KT 25/09 A3031 RMK A01 T02530087  RH  036%=      5-min Rain = 0
KMNS 181810Z 09006G11KT 26/09 A3031 RMK A01 T02560087  RH  035%=      5-min Rain = 0
KMNS 181815Z 07006G11KT 26/09 A303 RMK A01 T02580086  RH  035%=      5-min Rain = 0
KMNS 181820Z 05007G12KT 26/08 A303 RMK A01 T02560084  RH  035%=      5-min Rain = 0
KMNS 181825Z 04008KT 26/08 A303 RMK A01 T02620083  RH  033%=      5-min Rain = 0
KMNS 181830Z 08009G14KT 27/08 A303 RMK A01 T02650081  RH  032%=      5-min Rain = 0
KMNS 181835Z 06006KT 26/08 A303 RMK A01 T02610080  RH  033%=      5-min Rain = 0
KMNS 181840Z 09006G11KT 26/08 A3029 RMK A01 T02620081  RH  033%=      5-min Rain = 0
KMNS 181845Z 13008G13KT 27/08 A3029 RMK A01 T02650082  RH  032%=      5-min Rain = 0
KMNS 181850Z 11004G9KT 26/08 A3029 RMK A01 T02640083  RH  033%=      5-min Rain = 0
KMNS 181855Z 12006KT 26/08 A3029 RMK A01 T02640082  RH  033%=      5-min Rain = 0
KMNS 181900Z 05006G12KT 26/07 A3029 RMK A01 T02610070  RH  030%=      5-min Rain = 0
KMNS 181905Z 07008G14KT 27/08 A3028 RMK A01 T02670078  RH  031%=      5-min Rain = 0
KMNS 181910Z 06010KT 27/08 A3028 RMK A01 T02690077  RH  030%=      5-min Rain = 0
KMNS 181915Z 07008KT 27/08 A3028 RMK A01 T02670081  RH  032%=      5-min Rain = 0
KMNS 181920Z 08003G9KT 27/08 A3028 RMK A01 T02660079  RH  031%=      5-min Rain = 0
KMNS 181925Z 10006G13KT 27/08 A3027 RMK A01 T02700080  RH  031%=      5-min Rain = 0
KMNS 181930Z 12007G14KT 27/08 A3027 RMK A01 T02690076  RH  030%=      5-min Rain = 0
KMNS 181935Z 07009G15KT 28/07 A3027 RMK A01 T02750068  RH  027%=      5-min Rain = 0
KMNS 181940Z 09009KT 27/06 A3027 RMK A01 T02710062  RH  027%=      5-min Rain = 0
KMNS 181945Z 08009KT 27/07 A3027 RMK A01 T02730069  RH  028%=      5-min Rain = 0
KMNS 181950Z 07005G11KT 26/07 A3027 RMK A01 T02640069  RH  030%=      5-min Rain = 0
KMNS 181955Z 14006G11KT 27/07 A3027 RMK A01 T02680069  RH  029%=      5-min Rain = 0
KMNS 182000Z 11007G16KT 27/07 A3027 RMK A01 T02730066  RH  027%=      5-min Rain = 0
KMNS 182005Z 11012G18KT 28/06 A3026 RMK A01 T02760063  RH  027%=      5-min Rain = 0
KMNS 182010Z 11009KT 27/07 A3026 RMK A01 T02730070  RH  028%=      5-min Rain = 0
KMNS 182015Z 10007G14KT 28/07 A3026 RMK A01 T02790074  RH  028%=      5-min Rain = 0
KMNS 182020Z 11009G15KT 27/08 A3026 RMK A01 T02730077  RH  030%=      5-min Rain = 0
KMNS 182025Z 12010KT 27/08 A3025 RMK A01 T02700078  RH  030%=      5-min Rain = 0
KMNS 182030Z 12010KT 27/08 A3025 RMK A01 T02730079  RH  030%=      5-min Rain = 0
KMNS 182035Z 08008KT 28/08 A3025 RMK A01 T02750076  RH  029%=      5-min Rain = 0
KMNS 182040Z 11007G12KT 27/07 A3025 RMK A01 T02720073  RH  029%=      5-min Rain = 0
KMNS 182045Z 09006KT 27/07 A3024 RMK A01 T02740072  RH  029%=      5-min Rain = 0
KMNS 182050Z 09006G16KT 28/07 A3024 RMK A01 T02780072  RH  028%=      5-min Rain = 0
KMNS 182055Z 11007G14KT 27/07 A3024 RMK A01 T02720070  RH  028%=      5-min Rain = 0
KMNS 182100Z 09009G14KT 28/07 A3024 RMK A01 T02770071  RH  028%=      5-min Rain = 0
KMNS 182105Z 11008KT 28/07 A3024 RMK A01 T02760072  RH  028%=      5-min Rain = 0
KMNS 182110Z 09009KT 28/07 A3024 RMK A01 T02760072  RH  028%=      5-min Rain = 0
KMNS 182115Z 07007G12KT 28/07 A3024 RMK A01 T02760073  RH  028%=      5-min Rain = 0
KMNS 182120Z 11009KT 28/07 A3023 RMK A01 T02760071  RH  028%=      5-min Rain = 0
KMNS 182125Z 10009KT 28/07 A3023 RMK A01 T02760068  RH  027%=      5-min Rain = 0
KMNS 182130Z 09011G17KT 28/06 A3023 RMK A01 T02780063  RH  026%=      5-min Rain = 0
KMNS 182135Z 09011G16KT 28/06 A3023 RMK A01 T02760062  RH  026%=      5-min Rain = 0
KMNS 182140Z 10010G15KT 27/06 A3023 RMK A01 T02740061  RH  026%=      5-min Rain = 0
KMNS 182145Z 11009G14KT 28/06 A3023 RMK A01 T02750062  RH  026%=      5-min Rain = 0
KMNS 182150Z 10011KT 28/07 A3023 RMK A01 T02760065  RH  027%=      5-min Rain = 0
KMNS 182155Z 10005G10KT 27/07 A3023 RMK A01 T02700066  RH  028%=      5-min Rain = 0
KMNS 182200Z 09005KT 27/07 A3023 RMK A01 T02720068  RH  028%=      5-min Rain = 0
KMNS 182205Z 08009KT 27/07 A3022 RMK A01 T02740069  RH  028%=      5-min Rain = 0
KMNS 182210Z 10010KT 27/07 A3022 RMK A01 T02720069  RH  028%=      5-min Rain = 0
KMNS 182215Z 09008KT 27/07 A3022 RMK A01 T02730070  RH  028%=      5-min Rain = 0
KMNS 182220Z 12006KT 27/07 A3022 RMK A01 T02710069  RH  028%=      5-min Rain = 0
KMNS 182225Z 11008G13KT 27/07 A3022 RMK A01 T02700067  RH  028%=      5-min Rain = 0
KMNS 182230Z 10008G13KT 27/06 A3022 RMK A01 T02720062  RH  027%=      5-min Rain = 0
KMNS 182235Z 09010KT 27/06 A3022 RMK A01 T02730059  RH  026%=      5-min Rain = 0
KMNS 182240Z 11009KT 27/05 A3022 RMK A01 T02720054  RH  025%=      5-min Rain = 0
KMNS 182245Z 12012KT 27/06 A3022 RMK A01 T02730056  RH  026%=      5-min Rain = 0
KMNS 182250Z 11011KT 27/05 A3022 RMK A01 T02700050  RH  025%=      5-min Rain = 0
KMNS 182255Z 10010KT 27/05 A3022 RMK A01 T02700051  RH  025%=      5-min Rain = 0
KMNS 182300Z 10011KT 27/05 A3022 RMK A01 T02690053  RH  026%=      5-min Rain = 0
KMNS 182305Z 10010KT 27/06 A3022 RMK A01 T02690056  RH  026%=      5-min Rain = 0
KMNS 182310Z 11008KT 27/06 A3022 RMK A01 T02690056  RH  026%=      5-min Rain = 0
KMNS 182315Z 10009G14KT 27/06 A3022 RMK A01 T02670056  RH  026%=      5-min Rain = 0
KMNS 182320Z 11009KT 27/05 A3022 RMK A01 T02670054  RH  026%=      5-min Rain = 0
KMNS 182325Z 11010KT 27/05 A3022 RMK A01 T02650052  RH  026%=      5-min Rain = 0
KMNS 182330Z 09011KT 27/05 A3022 RMK A01 T02650050  RH  026%=      5-min Rain = 0
KMNS 182335Z 09011G16KT 26/05 A3022 RMK A01 T02630052  RH  026%=      5-min Rain = 0
KMNS 182340Z 10009KT 26/05 A3022 RMK A01 T02610053  RH  027%=      5-min Rain = 0
KMNS 182345Z 09007KT 26/05 A3022 RMK A01 T02600054  RH  027%=      5-min Rain = 0
KMNS 182350Z 10009KT 26/05 A3022 RMK A01 T02600053  RH  027%=      5-min Rain = 0
KMNS 182355Z 09010KT 26/05 A3023 RMK A01 T02590048  RH  026%=      5-min Rain = 0
KMNS 190000Z 09009KT 26/05 A3023 RMK A01 T02570046  RH  026%=      5-min Rain = 0
KMNS 190005Z 10010KT 26/04 A3023 RMK A01 T02550044  RH  026%=      5-min Rain = 0
KMNS 190010Z 10011KT 25/05 A3023 RMK A01 T02530046  RH  027%=      5-min Rain = 0
KMNS 190015Z 11010KT 25/05 A3023 RMK A01 T02510048  RH  028%=      5-min Rain = 0
KMNS 190020Z 10010KT 25/05 A3023 RMK A01 T02490050  RH  028%=      5-min Rain = 0
KMNS 190025Z 10009KT 25/05 A3023 RMK A01 T02470052  RH  029%=      5-min Rain = 0
KMNS 190030Z 10008KT 24/05 A3023 RMK A01 T02440054  RH  030%=      5-min Rain = 0
KMNS 190035Z 10008KT 24/06 A3023 RMK A01 T02420055  RH  031%=      5-min Rain = 0
KMNS 190040Z 10008KT 24/06 A3023 RMK A01 T02400055  RH  031%=      5-min Rain = 0
KMNS 190045Z 09007KT 24/06 A3023 RMK A01 T02360056  RH  032%=      5-min Rain = 0
KMNS 190050Z 09007KT 23/06 A3023 RMK A01 T02330057  RH  033%=      5-min Rain = 0
KMNS 190055Z 10006KT 23/06 A3023 RMK A01 T02290058  RH  034%=      5-min Rain = 0
KMNS 190100Z 09006KT 22/06 A3024 RMK A01 T02230058  RH  035%=      5-min Rain = 0
KMNS 190105Z 09006KT 22/06 A3024 RMK A01 T02170061  RH  037%=      5-min Rain = 0
KMNS 190110Z 09006KT 22/06 A3024 RMK A01 T02150062  RH  038%=      5-min Rain = 0
KMNS 190115Z 09006KT 22/06 A3024 RMK A01 T02150063  RH  038%=      5-min Rain = 0
KMNS 190120Z 09007KT 21/06 A3024 RMK A01 T02130064  RH  039%=      5-min Rain = 0
KMNS 190125Z 09006KT 21/07 A3024 RMK A01 T02100065  RH  040%=      5-min Rain = 0
KMNS 190130Z 08007KT 21/07 A3024 RMK A01 T02050067  RH  042%=      5-min Rain = 0
KMNS 190135Z 08007KT 21/07 A3024 RMK A01 T02050068  RH  042%=      5-min Rain = 0
KMNS 190140Z 08007KT 20/07 A3024 RMK A01 T02020068  RH  043%=      5-min Rain = 0
KMNS 190145Z 08007KT 20/07 A3024 RMK A01 T01980069  RH  044%=      5-min Rain = 0
KMNS 190150Z 09006KT 20/07 A3025 RMK A01 T01960069  RH  045%=      5-min Rain = 0
KMNS 190155Z 09006KT 19/07 A3025 RMK A01 T01940068  RH  045%=      5-min Rain = 0
KMNS 190200Z 09007KT 20/07 A3025 RMK A01 T01950067  RH  044%=      5-min Rain = 0
KMNS 190205Z 09007KT 20/07 A3025 RMK A01 T01950066  RH  044%=      5-min Rain = 0
KMNS 190210Z 08007KT 20/07 A3025 RMK A01 T01970068  RH  044%=      5-min Rain = 0
KMNS 190215Z 08007KT 20/07 A3026 RMK A01 T01960070  RH  045%=      5-min Rain = 0
KMNS 190220Z 09007KT 19/07 A3026 RMK A01 T01940070  RH  046%=      5-min Rain = 0
KMNS 190225Z 08007KT 19/07 A3026 RMK A01 T01930070  RH  046%=      5-min Rain = 0
KMNS 190230Z 08007KT 19/07 A3027 RMK A01 T01940072  RH  046%=      5-min Rain = 0
KMNS 190235Z 08007KT 20/07 A3027 RMK A01 T01950072  RH  046%=      5-min Rain = 0
KMNS 190240Z 09006KT 19/07 A3027 RMK A01 T01930072  RH  047%=      5-min Rain = 0
KMNS 190245Z 09006KT 19/07 A3027 RMK A01 T01900072  RH  047%=      5-min Rain = 0
KMNS 190250Z 09006KT 19/07 A3027 RMK A01 T01890071  RH  048%=      5-min Rain = 0
KMNS 190255Z 09007KT 19/07 A3027 RMK A01 T01890071  RH  047%=      5-min Rain = 0
KMNS 190300Z 09007KT 19/07 A3027 RMK A01 T01880071  RH  048%=      5-min Rain = 0
KMNS 190305Z 09007KT 19/07 A3027 RMK A01 T01860071  RH  049%=      5-min Rain = 0
KMNS 190310Z 09007KT 18/07 A3028 RMK A01 T01830071  RH  049%=      5-min Rain = 0
KMNS 190315Z 09007KT 18/07 A3028 RMK A01 T01810071  RH  050%=      5-min Rain = 0
KMNS 190320Z 09007KT 18/07 A3028 RMK A01 T01810072  RH  050%=      5-min Rain = 0
KMNS 190325Z 09007KT 18/07 A3028 RMK A01 T01820073  RH  050%=      5-min Rain = 0
KMNS 190330Z 09007KT 18/07 A3028 RMK A01 T01810073  RH  051%=      5-min Rain = 0
KMNS 190335Z 09007KT 18/07 A3028 RMK A01 T01790073  RH  051%=      5-min Rain = 0
KMNS 190340Z 10008KT 18/07 A3028 RMK A01 T01790073  RH  051%=      5-min Rain = 0
KMNS 190345Z 10007KT 18/07 A3028 RMK A01 T01770072  RH  051%=      5-min Rain = 0
KMNS 190350Z 10007KT 18/07 A3028 RMK A01 T01770073  RH  052%=      5-min Rain = 0
KMNS 190355Z 10007KT 18/07 A3028 RMK A01 T01760073  RH  052%=      5-min Rain = 0
KMNS 190400Z 09007KT 18/07 A3028 RMK A01 T01750072  RH  052%=      5-min Rain = 0
KMNS 190405Z 10007KT 17/07 A3028 RMK A01 T01740071  RH  052%=      5-min Rain = 0
KMNS 190410Z 10007KT 17/07 A3029 RMK A01 T01730071  RH  052%=      5-min Rain = 0
KMNS 190415Z 10007KT 17/07 A3029 RMK A01 T01710070  RH  053%=      5-min Rain = 0
KMNS 190420Z 10007KT 17/07 A3029 RMK A01 T01690070  RH  054%=      5-min Rain = 0
KMNS 190425Z 10007KT 17/07 A3029 RMK A01 T01650069  RH  054%=      5-min Rain = 0
KMNS 190430Z 10006KT 16/07 A3029 RMK A01 T01620069  RH  055%=      5-min Rain = 0
KMNS 190435Z 10006KT 16/07 A3029 RMK A01 T01590068  RH  056%=      5-min Rain = 0
KMNS 190440Z 10006KT 16/07 A3029 RMK A01 T01560067  RH  057%=      5-min Rain = 0
KMNS 190445Z 10005KT 15/07 A3029 RMK A01 T01530065  RH  057%=      5-min Rain = 0
KMNS 190450Z 11005KT 15/07 A3029 RMK A01 T01510065  RH  058%=      5-min Rain = 0
KMNS 190455Z 10005KT 15/06 A3029 RMK A01 T01480063  RH  058%=      5-min Rain = 0

Page generated in 0.0117 seconds.